Estación Meteorológica Peña el Pijo (Robertgarden) [ 05/25/24 09:03:16 CEST ]

Fecha Hora Presion(HPa) Temp (°C) Humedad % Rocio (°C) Viento ( m/s) Direccion Lluvia 1Hora(mm) Lluvia 24H(mm) LLuvia Total(mm)
2011-Jan-10 01:01:14 1011.000 4.4 78 0.9         20.72
2011-Jan-10 02:03:13 1010.700 3.0 82 0.2         20.72
2011-Jan-10 03:01:13 1010.800 1.6 83 -1.0         20.72
2011-Jan-10 04:01:19 1011.000 0.4 86 -1.7         20.72
2011-Jan-10 05:01:14 1011.000 0.4 87 -1.5         20.72
2011-Jan-10 06:01:15 1010.900 1.8 84 -0.7         20.72
2011-Jan-10 07:01:18 1011.200 1.4 81 -1.5         20.72
2011-Jan-10 08:01:11 1011.600 0.2 82 -2.5         20.72
2011-Jan-10 09:01:12 1011.900 -0.4 86 -2.4         20.72
2011-Jan-10 10:01:14 1012.700 4.6 77 0.9 2.7 SSE     20.72
2011-Jan-10 11:01:11 1013.700 7.8 63 1.2         20.72
2011-Jan-10 12:01:14 1013.500 9.5 56 1.1         20.72
2011-Jan-10 13:01:12 1012.800 10.9 50 0.9         20.72
2011-Jan-10 14:01:18 1012.300 11.8 45 0.2         20.72
2011-Jan-10 15:01:23 1012.400 12.1 42 -0.5         20.72
2011-Jan-10 16:01:13 1012.300 12.4 38 -1.6         20.72
2011-Jan-10 17:01:15 1013.000 8.1 43 -3.8         20.72
2011-Jan-10 18:01:10 1013.400 6.1 50 -3.5         20.72
2011-Jan-10 19:01:17 1013.700 3.6 58 -3.9         20.72
2011-Jan-10 20:01:12 1014.000 2.3 65 -3.6         20.72
2011-Jan-10 21:01:13 1014.300 1.6 69 -3.5         20.72
2011-Jan-10 22:01:13 1014.700 3.9 72 -0.7 0.1 SSE     20.72
2011-Jan-10 23:01:18 1015.000 5.1 74 0.8         20.72

Temperatura Máxima:12°    Temperatura Mínima:
Presión Máxima:1015.000 Hpa    Presión Mínima:1010.700 Hpa


Volver